createdAt,value
2022-11-23T07:31:32.173Z,4.52
2022-11-23T07:36:34.254Z,4.56
2022-11-23T07:41:36.298Z,4.53
2022-11-23T07:46:38.370Z,4.50
2022-11-23T07:51:40.355Z,4.61
2022-11-23T07:56:42.343Z,4.55
2022-11-23T08:01:48.541Z,4.65
2022-11-23T08:06:54.370Z,4.58
2022-11-23T08:11:56.377Z,4.61
2022-11-23T08:16:58.586Z,4.60
2022-11-23T08:22:00.563Z,4.70
2022-11-23T08:27:02.591Z,4.74
2022-11-23T08:32:04.763Z,4.71
2022-11-23T08:37:06.806Z,4.72
2022-11-23T08:42:08.830Z,4.89
2022-11-23T08:47:10.830Z,4.90
2022-11-23T08:52:12.905Z,4.87
2022-11-23T08:57:14.982Z,4.87
2022-11-23T09:02:17.080Z,4.79
2022-11-23T09:07:19.158Z,4.81
2022-11-23T09:12:21.209Z,4.77
2022-11-23T09:17:23.192Z,4.79
2022-11-23T09:22:25.290Z,4.72
2022-11-23T09:27:27.355Z,4.78
2022-11-23T09:32:29.394Z,4.71
2022-11-23T09:37:31.570Z,4.75
2022-11-23T09:42:39.620Z,4.83
2022-11-23T09:48:01.237Z,4.83
2022-11-23T09:53:10.271Z,4.88
2022-11-23T09:58:18.299Z,4.87
2022-11-23T10:03:20.339Z,4.82
2022-11-23T10:09:01.533Z,4.96
2022-11-23T10:14:19.524Z,4.98
2022-11-23T10:19:46.127Z,4.89
2022-11-23T10:24:52.399Z,4.97
2022-11-23T10:29:56.484Z,4.87
2022-11-23T10:35:04.545Z,4.87
2022-11-23T10:40:15.098Z,4.85
2022-11-23T10:45:23.396Z,4.95
2022-11-23T10:50:30.232Z,5.10
2022-11-23T10:55:46.278Z,5.10
2022-11-23T11:00:59.615Z,5.15
2022-11-23T11:06:11.437Z,5.16
2022-11-23T11:11:29.481Z,5.09
2022-11-23T11:16:37.009Z,5.14
2022-11-23T11:21:41.848Z,5.18
2022-11-23T11:26:58.554Z,5.09
2022-11-23T11:32:06.404Z,5.09
2022-11-23T11:37:35.716Z,5.22
2022-11-23T11:42:45.257Z,5.29
2022-11-23T11:48:13.106Z,5.42
2022-11-23T11:53:46.873Z,5.50
2022-11-23T11:59:13.267Z,5.56
2022-11-23T12:04:23.991Z,5.53
2022-11-23T12:09:31.939Z,5.57
2022-11-23T12:14:34.599Z,5.55
2022-11-23T12:19:42.736Z,5.55
2022-11-23T12:25:03.800Z,5.55
2022-11-23T12:30:21.583Z,6.30
2022-11-23T12:35:35.770Z,6.32
2022-11-23T12:40:43.850Z,6.10
2022-11-23T12:46:20.451Z,6.05
2022-11-23T12:51:25.649Z,5.98
2022-11-23T12:56:52.760Z,5.92
2022-11-23T13:02:01.658Z,5.83
2022-11-23T13:07:46.251Z,5.69
2022-11-23T13:13:00.004Z,5.73
2022-11-23T13:18:45.812Z,5.74
2022-11-23T13:23:47.929Z,5.72
2022-11-23T13:28:52.627Z,5.63
2022-11-23T13:33:56.968Z,5.62
2022-11-23T13:39:00.643Z,5.61
2022-11-23T13:44:18.582Z,5.50
2022-11-23T13:49:31.396Z,5.59
2022-11-23T13:54:33.981Z,5.51
2022-11-23T13:59:36.361Z,5.48
2022-11-23T14:04:45.885Z,5.40
2022-11-23T14:10:17.694Z,5.44
2022-11-23T14:15:22.270Z,5.46
2022-11-23T14:20:30.367Z,5.41
2022-11-23T14:25:55.754Z,5.41
2022-11-23T14:31:12.399Z,5.48
2022-11-23T14:36:43.415Z,5.48
2022-11-23T14:41:49.623Z,5.44
2022-11-23T14:47:09.029Z,5.43
2022-11-23T14:52:19.470Z,5.37
2022-11-23T14:57:24.750Z,5.40
2022-11-23T15:02:41.217Z,5.52
2022-11-23T15:08:07.315Z,5.46
2022-11-23T15:13:23.066Z,5.56
2022-11-23T15:18:33.040Z,5.55
2022-11-23T15:23:46.209Z,5.56
2022-11-23T15:28:48.852Z,5.55
2022-11-23T15:33:54.166Z,5.56
2022-11-23T15:38:58.488Z,5.53
2022-11-23T15:44:02.066Z,5.58
2022-11-23T15:49:06.318Z,5.51
2022-11-23T15:54:26.030Z,5.49
2022-11-23T15:59:27.957Z,5.50
2022-11-23T16:04:35.641Z,5.60
2022-11-23T16:09:51.900Z,5.55
2022-11-23T16:14:57.793Z,5.61
2022-11-23T16:20:04.899Z,5.56
2022-11-23T16:25:16.735Z,5.62
2022-11-23T16:30:27.373Z,5.54
2022-11-23T16:35:29.444Z,5.60
2022-11-23T16:40:32.618Z,5.57
2022-11-23T16:45:34.763Z,5.69
2022-11-23T16:50:36.820Z,5.68
2022-11-23T16:55:42.180Z,5.62
2022-11-23T17:00:46.057Z,5.59
2022-11-23T17:05:48.558Z,5.57
2022-11-23T17:10:51.625Z,5.59
2022-11-23T17:15:54.521Z,5.54
2022-11-23T17:20:56.594Z,5.63
2022-11-23T17:25:58.718Z,5.63
2022-11-23T17:31:01.478Z,5.70
2022-11-23T17:36:03.827Z,5.69
2022-11-23T17:41:06.002Z,5.63
2022-11-23T17:46:28.323Z,5.50
2022-11-23T17:51:30.427Z,5.53
2022-11-23T17:56:32.742Z,5.48
2022-11-23T18:01:34.816Z,5.39
2022-11-23T18:06:36.949Z,5.44
2022-11-23T18:11:39.148Z,5.44
2022-11-23T18:16:41.175Z,5.35
2022-11-23T18:21:43.197Z,5.31
2022-11-23T18:26:45.224Z,5.31
2022-11-23T18:31:48.064Z,5.39
2022-11-23T18:36:50.066Z,5.36
2022-11-23T18:41:52.070Z,5.42
2022-11-23T18:46:55.048Z,5.38
2022-11-23T18:51:57.150Z,5.30
2022-11-23T18:56:59.183Z,5.44
2022-11-23T19:02:01.510Z,5.49
2022-11-23T19:07:03.571Z,5.48
2022-11-23T19:12:06.996Z,5.47
2022-11-23T19:17:09.062Z,5.50
2022-11-23T19:22:11.067Z,5.46
2022-11-23T19:27:13.130Z,5.35
2022-11-23T19:32:15.174Z,5.39
2022-11-23T19:37:17.348Z,5.35
2022-11-23T19:42:19.400Z,5.37
2022-11-23T19:47:23.020Z,5.27
2022-11-23T19:52:41.703Z,5.25
2022-11-23T19:57:47.242Z,5.26
2022-11-23T20:02:49.286Z,5.37
2022-11-23T20:07:51.347Z,5.38
2022-11-23T20:12:53.639Z,5.30
2022-11-23T20:17:55.666Z,5.40
2022-11-23T20:22:57.828Z,5.39
2022-11-23T20:27:59.830Z,5.42
2022-11-23T20:33:02.149Z,5.49
2022-11-23T20:38:05.013Z,5.49
